sensor_id;sensor_type;location;lat;lon;timestamp;P1;durP1;ratioP1;P2;durP2;ratioP2
67715;SDS011;54508;43.238;25.306;2023-07-29T00:00:40;2.70;;;1.98;;
67715;SDS011;54508;43.238;25.306;2023-07-29T00:03:05;2.55;;;2.00;;
67715;SDS011;54508;43.238;25.306;2023-07-29T00:05:31;2.65;;;1.70;;
67715;SDS011;54508;43.238;25.306;2023-07-29T00:07:56;2.93;;;2.00;;
67715;SDS011;54508;43.238;25.306;2023-07-29T00:10:22;2.10;;;1.80;;
67715;SDS011;54508;43.238;25.306;2023-07-29T00:12:47;3.28;;;1.67;;
67715;SDS011;54508;43.238;25.306;2023-07-29T00:15:13;2.20;;;1.80;;
67715;SDS011;54508;43.238;25.306;2023-07-29T00:17:39;2.10;;;1.90;;
67715;SDS011;54508;43.238;25.306;2023-07-29T00:20:05;1.80;;;1.70;;
67715;SDS011;54508;43.238;25.306;2023-07-29T00:22:31;3.13;;;2.25;;
67715;SDS011;54508;43.238;25.306;2023-07-29T00:24:56;2.20;;;1.73;;
67715;SDS011;54508;43.238;25.306;2023-07-29T00:27:25;3.55;;;1.90;;
67715;SDS011;54508;43.238;25.306;2023-07-29T00:29:51;3.28;;;1.75;;
67715;SDS011;54508;43.238;25.306;2023-07-29T00:32:17;1.70;;;1.60;;
67715;SDS011;54508;43.238;25.306;2023-07-29T00:34:42;2.97;;;1.80;;
67715;SDS011;54508;43.238;25.306;2023-07-29T00:37:08;2.77;;;2.03;;
67715;SDS011;54508;43.238;25.306;2023-07-29T00:39:33;2.30;;;1.67;;
67715;SDS011;54508;43.238;25.306;2023-07-29T00:41:59;2.13;;;1.67;;
67715;SDS011;54508;43.238;25.306;2023-07-29T00:44:24;2.13;;;1.50;;
67715;SDS011;54508;43.238;25.306;2023-07-29T00:46:51;2.43;;;1.63;;
67715;SDS011;54508;43.238;25.306;2023-07-29T00:49:18;2.72;;;1.80;;
67715;SDS011;54508;43.238;25.306;2023-07-29T00:51:44;2.22;;;2.00;;
67715;SDS011;54508;43.238;25.306;2023-07-29T00:54:10;2.23;;;1.90;;
67715;SDS011;54508;43.238;25.306;2023-07-29T00:56:35;2.60;;;1.80;;
67715;SDS011;54508;43.238;25.306;2023-07-29T00:59:01;3.58;;;1.77;;
67715;SDS011;54508;43.238;25.306;2023-07-29T01:01:27;2.13;;;1.60;;
67715;SDS011;54508;43.238;25.306;2023-07-29T01:03:54;2.25;;;1.88;;
67715;SDS011;54508;43.238;25.306;2023-07-29T01:06:41;2.30;;;1.95;;
67715;SDS011;54508;43.238;25.306;2023-07-29T01:11:57;4.10;;;2.17;;
67715;SDS011;54508;43.238;25.306;2023-07-29T01:17:06;2.55;;;2.30;;
67715;SDS011;54508;43.238;25.306;2023-07-29T01:19:48;2.20;;;1.88;;
67715;SDS011;54508;43.238;25.306;2023-07-29T01:22:37;2.30;;;1.70;;
67715;SDS011;54508;43.238;25.306;2023-07-29T01:25:03;3.83;;;2.20;;
67715;SDS011;54508;43.238;25.306;2023-07-29T01:27:29;2.17;;;1.77;;
67715;SDS011;54508;43.238;25.306;2023-07-29T01:29:56;2.13;;;1.90;;
67715;SDS011;54508;43.238;25.306;2023-07-29T01:37:31;1.95;;;1.70;;
67715;SDS011;54508;43.238;25.306;2023-07-29T01:39:58;1.98;;;1.75;;
67715;SDS011;54508;43.238;25.306;2023-07-29T01:42:24;2.75;;;2.15;;
67715;SDS011;54508;43.238;25.306;2023-07-29T01:44:50;1.57;;;1.47;;
67715;SDS011;54508;43.238;25.306;2023-07-29T01:47:15;2.10;;;1.90;;
67715;SDS011;54508;43.238;25.306;2023-07-29T01:49:41;2.72;;;2.00;;
67715;SDS011;54508;43.238;25.306;2023-07-29T01:52:07;2.23;;;1.57;;
67715;SDS011;54508;43.238;25.306;2023-07-29T01:54:32;2.42;;;1.80;;
67715;SDS011;54508;43.238;25.306;2023-07-29T01:56:57;3.60;;;2.07;;
67715;SDS011;54508;43.238;25.306;2023-07-29T01:59:23;2.47;;;2.07;;
67715;SDS011;54508;43.238;25.306;2023-07-29T02:01:48;2.83;;;2.00;;
67715;SDS011;54508;43.238;25.306;2023-07-29T02:04:14;2.07;;;1.80;;
67715;SDS011;54508;43.238;25.306;2023-07-29T02:06:39;2.10;;;1.90;;
67715;SDS011;54508;43.238;25.306;2023-07-29T02:09:05;2.10;;;1.80;;
67715;SDS011;54508;43.238;25.306;2023-07-29T02:11:31;2.28;;;1.75;;
67715;SDS011;54508;43.238;25.306;2023-07-29T02:13:56;3.20;;;1.93;;
67715;SDS011;54508;43.238;25.306;2023-07-29T02:16:22;2.55;;;1.70;;
67715;SDS011;54508;43.238;25.306;2023-07-29T02:18:48;2.08;;;1.70;;
67715;SDS011;54508;43.238;25.306;2023-07-29T02:21:15;2.63;;;1.70;;
67715;SDS011;54508;43.238;25.306;2023-07-29T02:23:40;2.28;;;1.83;;
67715;SDS011;54508;43.238;25.306;2023-07-29T02:26:06;2.73;;;1.70;;
67715;SDS011;54508;43.238;25.306;2023-07-29T02:28:31;3.08;;;2.10;;
67715;SDS011;54508;43.238;25.306;2023-07-29T02:33:48;3.58;;;1.73;;
67715;SDS011;54508;43.238;25.306;2023-07-29T02:36:14;2.58;;;1.73;;
67715;SDS011;54508;43.238;25.306;2023-07-29T02:38:40;2.20;;;1.87;;
67715;SDS011;54508;43.238;25.306;2023-07-29T02:41:06;2.20;;;2.00;;
67715;SDS011;54508;43.238;25.306;2023-07-29T02:43:33;2.13;;;1.90;;
67715;SDS011;54508;43.238;25.306;2023-07-29T02:45:59;2.70;;;1.97;;
67715;SDS011;54508;43.238;25.306;2023-07-29T02:48:25;2.30;;;1.80;;
67715;SDS011;54508;43.238;25.306;2023-07-29T02:50:51;2.83;;;2.17;;
67715;SDS011;54508;43.238;25.306;2023-07-29T02:53:16;2.70;;;1.93;;
67715;SDS011;54508;43.238;25.306;2023-07-29T02:55:42;2.50;;;2.10;;
67715;SDS011;54508;43.238;25.306;2023-07-29T02:58:07;2.80;;;2.10;;
67715;SDS011;54508;43.238;25.306;2023-07-29T03:00:33;2.53;;;2.20;;
67715;SDS011;54508;43.238;25.306;2023-07-29T03:02:59;2.03;;;1.70;;
67715;SDS011;54508;43.238;25.306;2023-07-29T03:05:26;3.00;;;2.00;;
67715;SDS011;54508;43.238;25.306;2023-07-29T03:07:52;2.78;;;1.95;;
67715;SDS011;54508;43.238;25.306;2023-07-29T03:10:18;3.00;;;1.83;;
67715;SDS011;54508;43.238;25.306;2023-07-29T03:12:43;5.00;;;2.00;;
67715;SDS011;54508;43.238;25.306;2023-07-29T03:15:09;2.17;;;1.80;;
67715;SDS011;54508;43.238;25.306;2023-07-29T03:17:34;2.90;;;2.10;;
67715;SDS011;54508;43.238;25.306;2023-07-29T03:20:00;3.30;;;2.05;;
67715;SDS011;54508;43.238;25.306;2023-07-29T03:22:25;3.70;;;1.90;;
67715;SDS011;54508;43.238;25.306;2023-07-29T03:24:50;2.17;;;1.97;;
67715;SDS011;54508;43.238;25.306;2023-07-29T03:27:16;2.83;;;2.00;;
67715;SDS011;54508;43.238;25.306;2023-07-29T03:29:41;2.58;;;2.00;;
67715;SDS011;54508;43.238;25.306;2023-07-29T03:32:07;2.53;;;1.90;;
67715;SDS011;54508;43.238;25.306;2023-07-29T03:34:33;3.27;;;2.20;;
67715;SDS011;54508;43.238;25.306;2023-07-29T03:36:59;2.30;;;1.83;;
67715;SDS011;54508;43.238;25.306;2023-07-29T03:39:25;3.92;;;2.38;;
67715;SDS011;54508;43.238;25.306;2023-07-29T03:41:51;2.73;;;2.13;;
67715;SDS011;54508;43.238;25.306;2023-07-29T03:44:16;2.58;;;2.00;;
67715;SDS011;54508;43.238;25.306;2023-07-29T03:46:43;2.80;;;2.22;;
67715;SDS011;54508;43.238;25.306;2023-07-29T03:49:09;3.17;;;2.10;;
67715;SDS011;54508;43.238;25.306;2023-07-29T03:51:34;2.93;;;2.03;;
67715;SDS011;54508;43.238;25.306;2023-07-29T03:54:00;2.75;;;2.03;;
67715;SDS011;54508;43.238;25.306;2023-07-29T03:56:25;3.10;;;2.20;;
67715;SDS011;54508;43.238;25.306;2023-07-29T03:58:51;3.53;;;2.30;;
67715;SDS011;54508;43.238;25.306;2023-07-29T04:01:17;2.53;;;2.10;;
67715;SDS011;54508;43.238;25.306;2023-07-29T04:03:42;3.80;;;2.13;;
67715;SDS011;54508;43.238;25.306;2023-07-29T04:06:09;3.63;;;2.10;;
67715;SDS011;54508;43.238;25.306;2023-07-29T04:08:34;3.00;;;2.13;;
67715;SDS011;54508;43.238;25.306;2023-07-29T04:11:00;2.60;;;2.00;;
67715;SDS011;54508;43.238;25.306;2023-07-29T04:13:25;3.17;;;2.20;;
67715;SDS011;54508;43.238;25.306;2023-07-29T04:15:51;4.90;;;2.27;;
67715;SDS011;54508;43.238;25.306;2023-07-29T04:18:16;3.73;;;2.13;;
67715;SDS011;54508;43.238;25.306;2023-07-29T04:20:42;2.40;;;2.07;;
67715;SDS011;54508;43.238;25.306;2023-07-29T04:23:07;3.50;;;1.98;;
67715;SDS011;54508;43.238;25.306;2023-07-29T04:25:32;3.60;;;2.30;;
67715;SDS011;54508;43.238;25.306;2023-07-29T04:27:58;3.13;;;2.20;;
67715;SDS011;54508;43.238;25.306;2023-07-29T04:30:23;3.10;;;2.37;;
67715;SDS011;54508;43.238;25.306;2023-07-29T04:32:49;3.13;;;2.20;;
67715;SDS011;54508;43.238;25.306;2023-07-29T04:35:15;2.65;;;2.03;;
67715;SDS011;54508;43.238;25.306;2023-07-29T04:37:40;2.28;;;1.80;;
67715;SDS011;54508;43.238;25.306;2023-07-29T04:40:06;3.63;;;2.45;;
67715;SDS011;54508;43.238;25.306;2023-07-29T04:42:33;3.25;;;1.98;;
67715;SDS011;54508;43.238;25.306;2023-07-29T04:44:59;3.35;;;2.22;;
67715;SDS011;54508;43.238;25.306;2023-07-29T04:47:24;3.00;;;2.00;;
67715;SDS011;54508;43.238;25.306;2023-07-29T04:49:50;2.10;;;1.70;;
67715;SDS011;54508;43.238;25.306;2023-07-29T04:52:15;2.47;;;2.00;;
67715;SDS011;54508;43.238;25.306;2023-07-29T04:54:41;3.00;;;2.30;;
67715;SDS011;54508;43.238;25.306;2023-07-29T04:57:06;2.47;;;2.28;;
67715;SDS011;54508;43.238;25.306;2023-07-29T04:59:32;2.63;;;2.27;;
67715;SDS011;54508;43.238;25.306;2023-07-29T05:01:57;2.63;;;1.93;;
67715;SDS011;54508;43.238;25.306;2023-07-29T05:04:23;3.37;;;2.40;;
67715;SDS011;54508;43.238;25.306;2023-07-29T05:06:48;2.55;;;2.17;;
67715;SDS011;54508;43.238;25.306;2023-07-29T05:09:14;3.43;;;2.33;;
67715;SDS011;54508;43.238;25.306;2023-07-29T05:11:41;2.65;;;1.98;;
67715;SDS011;54508;43.238;25.306;2023-07-29T05:14:06;3.38;;;2.17;;
67715;SDS011;54508;43.238;25.306;2023-07-29T05:16:33;2.50;;;2.10;;
67715;SDS011;54508;43.238;25.306;2023-07-29T05:18:59;3.28;;;2.40;;
67715;SDS011;54508;43.238;25.306;2023-07-29T05:21:24;6.53;;;2.27;;
67715;SDS011;54508;43.238;25.306;2023-07-29T05:23:50;7.13;;;2.60;;
67715;SDS011;54508;43.238;25.306;2023-07-29T05:26:15;8.73;;;2.93;;
67715;SDS011;54508;43.238;25.306;2023-07-29T05:28:41;4.55;;;2.90;;
67715;SDS011;54508;43.238;25.306;2023-07-29T05:31:06;5.40;;;2.57;;
67715;SDS011;54508;43.238;25.306;2023-07-29T05:33:32;3.20;;;2.40;;
67715;SDS011;54508;43.238;25.306;2023-07-29T05:35:57;5.65;;;2.95;;
67715;SDS011;54508;43.238;25.306;2023-07-29T05:38:23;4.00;;;3.00;;
67715;SDS011;54508;43.238;25.306;2023-07-29T05:40:48;3.10;;;2.13;;
67715;SDS011;54508;43.238;25.306;2023-07-29T05:43:14;7.25;;;4.45;;
67715;SDS011;54508;43.238;25.306;2023-07-29T05:45:40;7.03;;;4.40;;
67715;SDS011;54508;43.238;25.306;2023-07-29T05:48:05;18.42;;;12.70;;
67715;SDS011;54508;43.238;25.306;2023-07-29T05:50:31;18.17;;;14.38;;
67715;SDS011;54508;43.238;25.306;2023-07-29T05:52:56;20.60;;;11.57;;
67715;SDS011;54508;43.238;25.306;2023-07-29T05:55:22;14.93;;;11.30;;
67715;SDS011;54508;43.238;25.306;2023-07-29T05:57:47;14.25;;;11.55;;
67715;SDS011;54508;43.238;25.306;2023-07-29T06:00:13;14.00;;;9.95;;
67715;SDS011;54508;43.238;25.306;2023-07-29T06:02:38;15.83;;;9.63;;
67715;SDS011;54508;43.238;25.306;2023-07-29T06:05:06;13.57;;;9.88;;
67715;SDS011;54508;43.238;25.306;2023-07-29T06:07:32;17.52;;;8.95;;
67715;SDS011;54508;43.238;25.306;2023-07-29T06:09:59;16.90;;;9.27;;
67715;SDS011;54508;43.238;25.306;2023-07-29T06:12:24;11.73;;;8.52;;
67715;SDS011;54508;43.238;25.306;2023-07-29T06:15:01;11.75;;;7.80;;
67715;SDS011;54508;43.238;25.306;2023-07-29T06:17:26;8.45;;;7.28;;
67715;SDS011;54508;43.238;25.306;2023-07-29T06:19:52;13.33;;;6.73;;
67715;SDS011;54508;43.238;25.306;2023-07-29T06:22:17;11.50;;;6.47;;
67715;SDS011;54508;43.238;25.306;2023-07-29T06:24:42;8.40;;;6.30;;
67715;SDS011;54508;43.238;25.306;2023-07-29T06:27:08;9.18;;;6.50;;
67715;SDS011;54508;43.238;25.306;2023-07-29T06:29:33;11.73;;;5.55;;
67715;SDS011;54508;43.238;25.306;2023-07-29T06:31:59;8.20;;;5.80;;
67715;SDS011;54508;43.238;25.306;2023-07-29T06:34:25;9.40;;;5.78;;
67715;SDS011;54508;43.238;25.306;2023-07-29T06:36:51;7.37;;;5.00;;
67715;SDS011;54508;43.238;25.306;2023-07-29T06:39:16;8.80;;;5.27;;
67715;SDS011;54508;43.238;25.306;2023-07-29T06:41:41;8.05;;;5.00;;
67715;SDS011;54508;43.238;25.306;2023-07-29T06:44:07;13.35;;;5.53;;
67715;SDS011;54508;43.238;25.306;2023-07-29T06:46:35;7.53;;;5.10;;
67715;SDS011;54508;43.238;25.306;2023-07-29T06:49:01;11.40;;;6.30;;
67715;SDS011;54508;43.238;25.306;2023-07-29T06:51:26;19.03;;;8.83;;
67715;SDS011;54508;43.238;25.306;2023-07-29T06:53:54;13.98;;;8.02;;
67715;SDS011;54508;43.238;25.306;2023-07-29T06:56:19;15.40;;;8.07;;
67715;SDS011;54508;43.238;25.306;2023-07-29T06:58:45;14.57;;;7.60;;
67715;SDS011;54508;43.238;25.306;2023-07-29T07:01:11;11.05;;;7.03;;
67715;SDS011;54508;43.238;25.306;2023-07-29T07:03:37;14.50;;;6.77;;
67715;SDS011;54508;43.238;25.306;2023-07-29T07:06:02;8.98;;;7.03;;
67715;SDS011;54508;43.238;25.306;2023-07-29T07:08:28;12.13;;;6.75;;
67715;SDS011;54508;43.238;25.306;2023-07-29T07:10:55;12.48;;;6.35;;
67715;SDS011;54508;43.238;25.306;2023-07-29T07:13:21;11.27;;;5.70;;
67715;SDS011;54508;43.238;25.306;2023-07-29T07:15:46;11.10;;;6.20;;
67715;SDS011;54508;43.238;25.306;2023-07-29T07:18:12;11.27;;;5.78;;
67715;SDS011;54508;43.238;25.306;2023-07-29T07:20:37;8.05;;;5.55;;
67715;SDS011;54508;43.238;25.306;2023-07-29T07:23:03;8.93;;;4.90;;
67715;SDS011;54508;43.238;25.306;2023-07-29T07:25:30;13.10;;;5.70;;
67715;SDS011;54508;43.238;25.306;2023-07-29T07:27:56;9.27;;;5.03;;
67715;SDS011;54508;43.238;25.306;2023-07-29T07:30:26;14.38;;;5.50;;
67715;SDS011;54508;43.238;25.306;2023-07-29T07:32:52;10.93;;;4.80;;
67715;SDS011;54508;43.238;25.306;2023-07-29T07:35:17;9.13;;;5.22;;
67715;SDS011;54508;43.238;25.306;2023-07-29T07:37:43;5.78;;;4.30;;
67715;SDS011;54508;43.238;25.306;2023-07-29T07:40:09;7.15;;;4.53;;
67715;SDS011;54508;43.238;25.306;2023-07-29T07:42:35;8.30;;;4.77;;
67715;SDS011;54508;43.238;25.306;2023-07-29T07:45:00;5.68;;;4.05;;
67715;SDS011;54508;43.238;25.306;2023-07-29T07:47:26;6.13;;;4.30;;
67715;SDS011;54508;43.238;25.306;2023-07-29T07:49:51;7.63;;;4.13;;
67715;SDS011;54508;43.238;25.306;2023-07-29T07:52:17;10.07;;;4.23;;
67715;SDS011;54508;43.238;25.306;2023-07-29T07:54:42;10.75;;;4.20;;
67715;SDS011;54508;43.238;25.306;2023-07-29T07:57:07;6.85;;;4.18;;
67715;SDS011;54508;43.238;25.306;2023-07-29T07:59:33;11.27;;;4.40;;
67715;SDS011;54508;43.238;25.306;2023-07-29T08:01:58;8.23;;;4.07;;
67715;SDS011;54508;43.238;25.306;2023-07-29T08:04:24;6.17;;;4.27;;
67715;SDS011;54508;43.238;25.306;2023-07-29T08:06:49;6.85;;;3.80;;
67715;SDS011;54508;43.238;25.306;2023-07-29T08:09:15;9.77;;;4.32;;
67715;SDS011;54508;43.238;25.306;2023-07-29T08:11:40;8.50;;;4.20;;
67715;SDS011;54508;43.238;25.306;2023-07-29T08:14:06;6.10;;;4.00;;
67715;SDS011;54508;43.238;25.306;2023-07-29T08:16:31;6.80;;;4.10;;
67715;SDS011;54508;43.238;25.306;2023-07-29T08:18:57;15.05;;;4.38;;
67715;SDS011;54508;43.238;25.306;2023-07-29T08:21:26;8.90;;;3.67;;
67715;SDS011;54508;43.238;25.306;2023-07-29T08:24:06;5.97;;;3.97;;
67715;SDS011;54508;43.238;25.306;2023-07-29T08:26:32;4.70;;;3.63;;
67715;SDS011;54508;43.238;25.306;2023-07-29T08:28:58;6.57;;;3.97;;
67715;SDS011;54508;43.238;25.306;2023-07-29T08:31:23;5.27;;;3.30;;
67715;SDS011;54508;43.238;25.306;2023-07-29T08:33:48;6.30;;;3.53;;
67715;SDS011;54508;43.238;25.306;2023-07-29T08:36:14;7.88;;;3.80;;
67715;SDS011;54508;43.238;25.306;2023-07-29T08:38:40;9.80;;;3.92;;
67715;SDS011;54508;43.238;25.306;2023-07-29T08:44:22;6.28;;;3.75;;
67715;SDS011;54508;43.238;25.306;2023-07-29T08:46:49;7.72;;;3.70;;
67715;SDS011;54508;43.238;25.306;2023-07-29T08:49:16;5.07;;;3.47;;
67715;SDS011;54508;43.238;25.306;2023-07-29T08:51:44;7.03;;;3.80;;
67715;SDS011;54508;43.238;25.306;2023-07-29T08:54:11;6.85;;;3.85;;
67715;SDS011;54508;43.238;25.306;2023-07-29T08:56:37;6.30;;;3.47;;
67715;SDS011;54508;43.238;25.306;2023-07-29T08:59:03;10.10;;;3.57;;
67715;SDS011;54508;43.238;25.306;2023-07-29T09:01:30;7.13;;;3.58;;
67715;SDS011;54508;43.238;25.306;2023-07-29T09:03:55;7.38;;;3.60;;
67715;SDS011;54508;43.238;25.306;2023-07-29T09:06:21;8.03;;;3.93;;
67715;SDS011;54508;43.238;25.306;2023-07-29T09:08:48;11.65;;;3.90;;
67715;SDS011;54508;43.238;25.306;2023-07-29T09:11:14;11.23;;;3.67;;
67715;SDS011;54508;43.238;25.306;2023-07-29T09:13:43;8.98;;;4.20;;
67715;SDS011;54508;43.238;25.306;2023-07-29T09:16:09;6.07;;;3.67;;
67715;SDS011;54508;43.238;25.306;2023-07-29T09:18:34;5.53;;;3.55;;
67715;SDS011;54508;43.238;25.306;2023-07-29T09:21:00;5.97;;;3.70;;
67715;SDS011;54508;43.238;25.306;2023-07-29T09:23:26;6.10;;;3.65;;
67715;SDS011;54508;43.238;25.306;2023-07-29T09:25:59;5.78;;;3.47;;
67715;SDS011;54508;43.238;25.306;2023-07-29T09:28:28;9.07;;;3.42;;
67715;SDS011;54508;43.238;25.306;2023-07-29T09:30:59;8.60;;;4.05;;
67715;SDS011;54508;43.238;25.306;2023-07-29T09:33:28;10.40;;;3.60;;
67715;SDS011;54508;43.238;25.306;2023-07-29T09:35:54;8.13;;;3.78;;
67715;SDS011;54508;43.238;25.306;2023-07-29T09:38:25;6.38;;;3.70;;
67715;SDS011;54508;43.238;25.306;2023-07-29T09:40:52;12.55;;;3.40;;
67715;SDS011;54508;43.238;25.306;2023-07-29T09:43:21;5.88;;;3.38;;
67715;SDS011;54508;43.238;25.306;2023-07-29T09:45:51;6.43;;;3.83;;
67715;SDS011;54508;43.238;25.306;2023-07-29T09:48:19;6.37;;;3.20;;
67715;SDS011;54508;43.238;25.306;2023-07-29T09:50:47;6.45;;;3.15;;
67715;SDS011;54508;43.238;25.306;2023-07-29T09:53:13;4.60;;;3.20;;
67715;SDS011;54508;43.238;25.306;2023-07-29T09:55:39;10.00;;;3.22;;
67715;SDS011;54508;43.238;25.306;2023-07-29T09:58:04;4.30;;;2.95;;
67715;SDS011;54508;43.238;25.306;2023-07-29T10:00:33;8.80;;;4.25;;
67715;SDS011;54508;43.238;25.306;2023-07-29T10:02:59;4.88;;;3.15;;
67715;SDS011;54508;43.238;25.306;2023-07-29T10:05:25;4.10;;;2.88;;
67715;SDS011;54508;43.238;25.306;2023-07-29T10:07:52;3.33;;;2.60;;
67715;SDS011;54508;43.238;25.306;2023-07-29T10:10:18;4.53;;;2.75;;
67715;SDS011;54508;43.238;25.306;2023-07-29T10:12:45;8.20;;;3.25;;
67715;SDS011;54508;43.238;25.306;2023-07-29T10:15:11;7.40;;;3.25;;
67715;SDS011;54508;43.238;25.306;2023-07-29T10:17:37;4.87;;;3.10;;
67715;SDS011;54508;43.238;25.306;2023-07-29T10:20:04;6.35;;;2.97;;
67715;SDS011;54508;43.238;25.306;2023-07-29T10:22:39;14.65;;;3.70;;
67715;SDS011;54508;43.238;25.306;2023-07-29T10:25:09;5.63;;;3.35;;
67715;SDS011;54508;43.238;25.306;2023-07-29T10:27:42;4.38;;;2.83;;
67715;SDS011;54508;43.238;25.306;2023-07-29T10:30:14;4.83;;;3.10;;
67715;SDS011;54508;43.238;25.306;2023-07-29T10:32:43;5.28;;;3.53;;
67715;SDS011;54508;43.238;25.306;2023-07-29T10:35:12;4.40;;;2.75;;
67715;SDS011;54508;43.238;25.306;2023-07-29T10:37:38;5.63;;;3.42;;
67715;SDS011;54508;43.238;25.306;2023-07-29T10:40:08;3.95;;;3.30;;
67715;SDS011;54508;43.238;25.306;2023-07-29T10:42:35;3.97;;;2.87;;
67715;SDS011;54508;43.238;25.306;2023-07-29T10:45:16;3.33;;;2.75;;
67715;SDS011;54508;43.238;25.306;2023-07-29T10:47:43;3.75;;;2.50;;
67715;SDS011;54508;43.238;25.306;2023-07-29T10:50:16;4.57;;;2.73;;
67715;SDS011;54508;43.238;25.306;2023-07-29T10:52:43;4.75;;;2.80;;
67715;SDS011;54508;43.238;25.306;2023-07-29T10:58:06;4.18;;;2.47;;
67715;SDS011;54508;43.238;25.306;2023-07-29T11:00:31;3.42;;;2.75;;
67715;SDS011;54508;43.238;25.306;2023-07-29T11:03:07;3.03;;;2.42;;
67715;SDS011;54508;43.238;25.306;2023-07-29T11:08:17;4.38;;;2.83;;
67715;SDS011;54508;43.238;25.306;2023-07-29T11:10:44;3.22;;;2.50;;
67715;SDS011;54508;43.238;25.306;2023-07-29T11:13:27;4.05;;;2.60;;
67715;SDS011;54508;43.238;25.306;2023-07-29T11:15:53;4.15;;;2.50;;
67715;SDS011;54508;43.238;25.306;2023-07-29T11:18:20;2.83;;;2.35;;
67715;SDS011;54508;43.238;25.306;2023-07-29T11:20:46;3.53;;;2.65;;
67715;SDS011;54508;43.238;25.306;2023-07-29T11:23:13;2.92;;;2.47;;
67715;SDS011;54508;43.238;25.306;2023-07-29T11:25:38;2.30;;;2.10;;
67715;SDS011;54508;43.238;25.306;2023-07-29T11:28:04;3.47;;;2.58;;
67715;SDS011;54508;43.238;25.306;2023-07-29T11:30:29;3.60;;;2.77;;
67715;SDS011;54508;43.238;25.306;2023-07-29T11:32:56;2.53;;;2.30;;
67715;SDS011;54508;43.238;25.306;2023-07-29T11:35:22;3.28;;;2.33;;
67715;SDS011;54508;43.238;25.306;2023-07-29T11:37:49;3.15;;;2.20;;
67715;SDS011;54508;43.238;25.306;2023-07-29T11:40:23;3.60;;;2.60;;
67715;SDS011;54508;43.238;25.306;2023-07-29T11:42:49;3.47;;;2.35;;
67715;SDS011;54508;43.238;25.306;2023-07-29T11:45:16;2.50;;;2.30;;
67715;SDS011;54508;43.238;25.306;2023-07-29T11:47:42;3.05;;;2.35;;
67715;SDS011;54508;43.238;25.306;2023-07-29T11:50:08;3.33;;;2.40;;
67715;SDS011;54508;43.238;25.306;2023-07-29T11:52:38;3.58;;;2.22;;
67715;SDS011;54508;43.238;25.306;2023-07-29T11:55:05;3.30;;;2.42;;
67715;SDS011;54508;43.238;25.306;2023-07-29T11:57:32;3.13;;;2.35;;
67715;SDS011;54508;43.238;25.306;2023-07-29T12:00:01;2.47;;;2.27;;
67715;SDS011;54508;43.238;25.306;2023-07-29T12:02:31;2.95;;;2.30;;
67715;SDS011;54508;43.238;25.306;2023-07-29T12:04:57;2.38;;;2.17;;
67715;SDS011;54508;43.238;25.306;2023-07-29T12:07:23;2.73;;;2.53;;
67715;SDS011;54508;43.238;25.306;2023-07-29T12:09:49;2.53;;;2.33;;
67715;SDS011;54508;43.238;25.306;2023-07-29T12:12:15;2.50;;;2.30;;
67715;SDS011;54508;43.238;25.306;2023-07-29T12:14:47;3.15;;;2.10;;
67715;SDS011;54508;43.238;25.306;2023-07-29T12:17:37;2.30;;;2.10;;
67715;SDS011;54508;43.238;25.306;2023-07-29T12:20:07;2.20;;;2.00;;
67715;SDS011;54508;43.238;25.306;2023-07-29T12:22:33;2.30;;;2.00;;
67715;SDS011;54508;43.238;25.306;2023-07-29T12:27:51;2.90;;;2.03;;
67715;SDS011;54508;43.238;25.306;2023-07-29T12:30:20;3.55;;;2.28;;
67715;SDS011;54508;43.238;25.306;2023-07-29T12:32:47;2.47;;;2.28;;
67715;SDS011;54508;43.238;25.306;2023-07-29T12:35:12;3.63;;;2.22;;
67715;SDS011;54508;43.238;25.306;2023-07-29T12:37:38;2.42;;;2.22;;
67715;SDS011;54508;43.238;25.306;2023-07-29T12:40:07;2.55;;;1.98;;
67715;SDS011;54508;43.238;25.306;2023-07-29T12:42:33;2.47;;;2.28;;
67715;SDS011;54508;43.238;25.306;2023-07-29T12:44:59;2.50;;;2.10;;
67715;SDS011;54508;43.238;25.306;2023-07-29T12:47:24;3.17;;;2.22;;
67715;SDS011;54508;43.238;25.306;2023-07-29T12:49:49;2.50;;;2.23;;
67715;SDS011;54508;43.238;25.306;2023-07-29T12:52:16;2.42;;;2.22;;
67715;SDS011;54508;43.238;25.306;2023-07-29T12:54:41;2.53;;;2.17;;
67715;SDS011;54508;43.238;25.306;2023-07-29T12:57:09;2.40;;;2.20;;
67715;SDS011;54508;43.238;25.306;2023-07-29T12:59:34;2.67;;;2.47;;
67715;SDS011;54508;43.238;25.306;2023-07-29T13:02:00;2.60;;;2.40;;
67715;SDS011;54508;43.238;25.306;2023-07-29T13:04:25;2.58;;;2.35;;
67715;SDS011;54508;43.238;25.306;2023-07-29T13:06:51;2.35;;;2.15;;
67715;SDS011;54508;43.238;25.306;2023-07-29T13:09:16;2.93;;;2.40;;
67715;SDS011;54508;43.238;25.306;2023-07-29T13:11:42;2.87;;;2.00;;
67715;SDS011;54508;43.238;25.306;2023-07-29T13:14:07;2.30;;;1.88;;
67715;SDS011;54508;43.238;25.306;2023-07-29T13:16:33;2.73;;;2.20;;
67715;SDS011;54508;43.238;25.306;2023-07-29T13:18:58;2.03;;;1.87;;
67715;SDS011;54508;43.238;25.306;2023-07-29T13:21:23;2.80;;;2.50;;
67715;SDS011;54508;43.238;25.306;2023-07-29T13:23:49;2.28;;;2.08;;
67715;SDS011;54508;43.238;25.306;2023-07-29T13:26:14;2.40;;;2.20;;
67715;SDS011;54508;43.238;25.306;2023-07-29T13:28:40;2.70;;;2.07;;
67715;SDS011;54508;43.238;25.306;2023-07-29T13:31:05;2.17;;;1.98;;
67715;SDS011;54508;43.238;25.306;2023-07-29T13:33:31;2.53;;;1.95;;
67715;SDS011;54508;43.238;25.306;2023-07-29T13:35:59;2.00;;;1.80;;
67715;SDS011;54508;43.238;25.306;2023-07-29T13:38:25;2.30;;;2.00;;
67715;SDS011;54508;43.238;25.306;2023-07-29T13:40:50;2.47;;;2.00;;
67715;SDS011;54508;43.238;25.306;2023-07-29T13:43:16;2.20;;;1.85;;
67715;SDS011;54508;43.238;25.306;2023-07-29T13:45:41;2.80;;;2.20;;
67715;SDS011;54508;43.238;25.306;2023-07-29T13:48:07;3.10;;;2.13;;
67715;SDS011;54508;43.238;25.306;2023-07-29T13:50:32;2.28;;;2.00;;
67715;SDS011;54508;43.238;25.306;2023-07-29T13:52:58;2.77;;;2.00;;
67715;SDS011;54508;43.238;25.306;2023-07-29T13:55:23;2.13;;;1.80;;
67715;SDS011;54508;43.238;25.306;2023-07-29T13:57:49;2.03;;;1.90;;
67715;SDS011;54508;43.238;25.306;2023-07-29T14:00:14;2.42;;;1.95;;
67715;SDS011;54508;43.238;25.306;2023-07-29T14:02:40;2.30;;;2.10;;
67715;SDS011;54508;43.238;25.306;2023-07-29T14:05:06;2.20;;;2.00;;
67715;SDS011;54508;43.238;25.306;2023-07-29T14:07:32;2.30;;;2.10;;
67715;SDS011;54508;43.238;25.306;2023-07-29T14:09:58;2.30;;;2.10;;
67715;SDS011;54508;43.238;25.306;2023-07-29T14:12:23;2.23;;;1.90;;
67715;SDS011;54508;43.238;25.306;2023-07-29T14:14:49;2.30;;;1.83;;
67715;SDS011;54508;43.238;25.306;2023-07-29T14:17:14;2.27;;;1.90;;
67715;SDS011;54508;43.238;25.306;2023-07-29T14:19:39;2.17;;;1.98;;
67715;SDS011;54508;43.238;25.306;2023-07-29T14:22:11;2.60;;;2.22;;
67715;SDS011;54508;43.238;25.306;2023-07-29T14:24:36;2.38;;;2.10;;
67715;SDS011;54508;43.238;25.306;2023-07-29T14:27:02;2.63;;;1.92;;
67715;SDS011;54508;43.238;25.306;2023-07-29T14:29:28;2.33;;;2.13;;
67715;SDS011;54508;43.238;25.306;2023-07-29T14:31:53;2.20;;;2.00;;
67715;SDS011;54508;43.238;25.306;2023-07-29T14:34:19;2.27;;;2.00;;
67715;SDS011;54508;43.238;25.306;2023-07-29T14:36:44;2.37;;;1.90;;
67715;SDS011;54508;43.238;25.306;2023-07-29T14:39:10;2.42;;;1.73;;
67715;SDS011;54508;43.238;25.306;2023-07-29T14:41:36;2.30;;;2.10;;
67715;SDS011;54508;43.238;25.306;2023-07-29T14:44:02;2.88;;;2.08;;
67715;SDS011;54508;43.238;25.306;2023-07-29T14:46:27;2.20;;;2.00;;
67715;SDS011;54508;43.238;25.306;2023-07-29T14:48:52;2.33;;;2.13;;
67715;SDS011;54508;43.238;25.306;2023-07-29T14:51:18;2.17;;;1.80;;
67715;SDS011;54508;43.238;25.306;2023-07-29T14:53:50;2.85;;;2.00;;